createdAt,value
2019-02-07T00:01:37.730Z,101.17
2019-02-07T00:04:08.606Z,102.07
2019-02-07T00:06:39.543Z,102.50
2019-02-07T00:09:10.886Z,99.65
2019-02-07T00:11:41.408Z,108.27
2019-02-07T00:14:12.211Z,105.73
2019-02-07T00:16:43.060Z,107.70
2019-02-07T00:19:14.512Z,109.80
2019-02-07T00:21:44.924Z,108.53
2019-02-07T00:24:15.747Z,115.15
2019-02-07T00:26:47.068Z,114.07
2019-02-07T00:29:17.437Z,117.87
2019-02-07T00:31:48.075Z,117.17
2019-02-07T00:34:20.027Z,118.43
2019-02-07T00:36:50.480Z,115.53
2019-02-07T00:39:21.560Z,106.90
2019-02-07T00:41:52.106Z,114.23
2019-02-07T00:44:22.690Z,113.73
2019-02-07T00:46:53.549Z,122.40
2019-02-07T00:49:25.140Z,114.23
2019-02-07T00:51:55.862Z,109.37
2019-02-07T00:54:26.447Z,114.23
2019-02-07T00:56:57.055Z,109.07
2019-02-07T00:59:27.440Z,117.13
2019-02-07T01:01:57.816Z,117.20
2019-02-07T01:04:32.100Z,107.33
2019-02-07T01:07:02.483Z,104.70
2019-02-07T01:10:07.617Z,101.93
2019-02-07T01:12:38.271Z,100.43
2019-02-07T01:15:10.360Z,102.37
2019-02-07T01:17:40.962Z,108.57
2019-02-07T01:20:13.964Z,113.97
2019-02-07T01:22:44.640Z,109.80
2019-02-07T01:25:17.970Z,106.00
2019-02-07T01:27:48.918Z,103.70
2019-02-07T01:30:21.754Z,112.43
2019-02-07T01:32:52.293Z,110.83
2019-02-07T01:35:23.384Z,105.37
2019-02-07T01:37:54.654Z,109.17
2019-02-07T01:40:25.404Z,108.53
2019-02-07T01:42:56.053Z,108.50
2019-02-07T01:45:27.175Z,106.92
2019-02-07T01:47:57.881Z,114.40
2019-02-07T01:50:28.859Z,107.57
2019-02-07T01:52:59.249Z,112.20
2019-02-07T01:55:29.736Z,107.78
2019-02-07T01:58:00.306Z,115.73
2019-02-07T02:00:30.836Z,107.33
2019-02-07T02:03:01.260Z,109.00
2019-02-07T02:05:32.095Z,112.60
2019-02-07T02:08:03.196Z,108.13
2019-02-07T02:10:33.621Z,112.43
2019-02-07T02:13:04.251Z,102.65
2019-02-07T02:15:34.650Z,104.90
2019-02-07T02:18:05.636Z,108.57
2019-02-07T02:20:36.090Z,108.43
2019-02-07T02:23:07.920Z,109.07
2019-02-07T02:25:39.812Z,106.10
2019-02-07T02:28:12.274Z,105.52
2019-02-07T02:30:42.792Z,105.27
2019-02-07T02:33:13.226Z,107.52
2019-02-07T02:35:43.814Z,109.67
2019-02-07T02:38:14.245Z,104.23
2019-02-07T02:40:45.175Z,105.40
2019-02-07T02:43:15.922Z,104.85
2019-02-07T02:45:47.886Z,110.50
2019-02-07T02:48:18.681Z,107.87
2019-02-07T02:50:49.083Z,111.27
2019-02-07T02:53:20.022Z,107.80
2019-02-07T02:55:51.518Z,110.73
2019-02-07T02:58:22.402Z,109.83
2019-02-07T03:01:27.029Z,111.20
2019-02-07T03:04:36.946Z,113.63
2019-02-07T03:07:31.015Z,113.80
2019-02-07T03:10:32.065Z,110.63
2019-02-07T03:13:30.569Z,109.77
2019-02-07T03:16:18.614Z,117.83
2019-02-07T03:19:08.114Z,117.27
2019-02-07T03:21:56.704Z,114.52
2019-02-07T03:24:56.231Z,116.23
2019-02-07T03:27:48.018Z,113.23
2019-02-07T03:30:42.905Z,115.93
2019-02-07T03:33:21.708Z,110.35
2019-02-07T03:36:11.233Z,110.60
2019-02-07T03:38:57.891Z,111.37
2019-02-07T03:41:53.392Z,111.60
2019-02-07T03:44:46.335Z,108.47
2019-02-07T03:47:38.559Z,108.80
2019-02-07T03:50:28.141Z,101.45
2019-02-07T03:53:29.951Z,103.77
2019-02-07T03:56:20.723Z,106.10
2019-02-07T03:59:16.458Z,106.07
2019-02-07T04:02:11.018Z,102.20
2019-02-07T04:04:59.452Z,104.13
2019-02-07T04:07:48.353Z,104.20
2019-02-07T04:10:28.085Z,98.00
2019-02-07T04:13:20.607Z,98.33
2019-02-07T04:16:22.624Z,98.10
2019-02-07T04:19:11.158Z,99.33
2019-02-07T04:22:00.567Z,107.07
2019-02-07T04:25:01.153Z,108.30
2019-02-07T04:27:58.346Z,101.90
2019-02-07T04:30:40.930Z,106.77
2019-02-07T04:33:29.768Z,98.50
2019-02-07T04:36:22.170Z,106.57
2019-02-07T04:39:20.999Z,105.40
2019-02-07T04:42:16.803Z,90.50
2019-02-07T04:45:06.571Z,99.03
2019-02-07T04:47:57.157Z,98.53
2019-02-07T04:50:53.154Z,95.07
2019-02-07T04:53:46.325Z,97.12
2019-02-07T04:56:34.827Z,97.88
2019-02-07T04:59:28.485Z,90.90
2019-02-07T05:02:30.876Z,101.40
2019-02-07T05:05:23.194Z,99.63
2019-02-07T05:08:21.322Z,100.13
2019-02-07T05:11:18.538Z,91.83
2019-02-07T05:14:15.473Z,100.63
2019-02-07T05:17:03.512Z,100.55
2019-02-07T05:20:08.795Z,99.00
2019-02-07T05:23:13.474Z,98.07
2019-02-07T05:26:02.849Z,102.40
2019-02-07T05:29:07.731Z,96.07
2019-02-07T05:32:03.287Z,103.03
2019-02-07T05:35:02.261Z,103.97
2019-02-07T05:37:57.962Z,101.87
2019-02-07T05:40:51.602Z,101.50
2019-02-07T05:43:37.439Z,103.83
2019-02-07T05:46:50.502Z,100.13
2019-02-07T05:49:36.057Z,106.50
2019-02-07T05:52:24.211Z,112.90
2019-02-07T05:55:16.581Z,103.80
2019-02-07T05:58:04.860Z,103.13
2019-02-07T06:00:53.394Z,103.30
2019-02-07T06:03:31.232Z,113.73
2019-02-07T06:06:16.780Z,103.67
2019-02-07T06:09:06.170Z,104.90
2019-02-07T06:11:50.294Z,104.63
2019-02-07T06:14:46.173Z,99.95
2019-02-07T06:17:27.839Z,101.43
2019-02-07T06:20:13.548Z,97.57
2019-02-07T06:23:06.710Z,97.30
2019-02-07T06:25:51.192Z,93.03
2019-02-07T06:28:34.593Z,95.70
2019-02-07T06:31:33.611Z,99.83
2019-02-07T06:34:29.091Z,93.43
2019-02-07T06:37:04.459Z,97.03
2019-02-07T06:39:49.684Z,93.80
2019-02-07T06:42:33.159Z,93.60
2019-02-07T06:45:28.549Z,93.87
2019-02-07T06:48:16.885Z,88.60
2019-02-07T06:51:09.247Z,89.20
2019-02-07T06:53:57.618Z,94.70
2019-02-07T06:56:47.095Z,93.67
2019-02-07T06:59:35.827Z,90.53
2019-02-07T07:02:27.300Z,88.17
2019-02-07T07:05:16.662Z,91.50
2019-02-07T07:08:01.094Z,90.30
2019-02-07T07:10:56.709Z,95.67
2019-02-07T07:13:43.929Z,87.33
2019-02-07T07:16:33.243Z,86.15
2019-02-07T07:19:22.748Z,90.87
2019-02-07T07:22:11.184Z,95.53
2019-02-07T07:24:59.322Z,89.90
2019-02-07T07:27:53.933Z,92.33
2019-02-07T07:30:42.343Z,93.70
2019-02-07T07:33:34.413Z,89.07
2019-02-07T07:36:40.455Z,91.70
2019-02-07T07:39:48.297Z,89.73
2019-02-07T07:42:38.984Z,86.32
2019-02-07T07:45:28.606Z,87.80
2019-02-07T07:48:23.524Z,88.10
2019-02-07T07:51:19.068Z,80.50
2019-02-07T07:54:17.459Z,69.30
2019-02-07T07:56:57.069Z,73.55
2019-02-07T07:59:46.479Z,75.50
2019-02-07T08:02:34.968Z,88.13
2019-02-07T08:05:26.044Z,75.55
2019-02-07T08:08:16.053Z,76.55
2019-02-07T08:11:01.379Z,73.43
2019-02-07T08:13:44.011Z,75.73
2019-02-07T08:16:36.866Z,76.03
2019-02-07T08:19:23.959Z,80.87
2019-02-07T08:22:12.586Z,77.87
2019-02-07T08:25:00.949Z,77.70
2019-02-07T08:27:50.100Z,80.97
2019-02-07T08:30:49.075Z,77.90
2019-02-07T08:33:39.324Z,83.50
2019-02-07T08:36:30.105Z,84.70
2019-02-07T08:39:14.022Z,79.43
2019-02-07T08:42:07.926Z,75.93
2019-02-07T08:45:01.255Z,68.20
2019-02-07T08:47:58.929Z,69.55
2019-02-07T08:50:47.431Z,67.97
2019-02-07T08:53:46.174Z,67.67
2019-02-07T08:56:31.293Z,67.27
2019-02-07T08:59:14.064Z,60.70
2019-02-07T09:02:15.904Z,60.60
2019-02-07T09:05:06.326Z,62.40
2019-02-07T09:07:58.624Z,65.08
2019-02-07T09:10:46.920Z,61.10
2019-02-07T09:13:35.407Z,64.25
2019-02-07T09:16:27.839Z,55.05
2019-02-07T09:19:16.098Z,66.27
2019-02-07T09:22:08.683Z,63.77
2019-02-07T09:24:56.762Z,60.37
2019-02-07T09:27:46.143Z,58.80
2019-02-07T09:30:56.299Z,54.25
2019-02-07T09:33:44.691Z,47.47
2019-02-07T09:36:43.336Z,51.37
2019-02-07T09:39:29.526Z,63.23
2019-02-07T09:42:18.226Z,61.30
2019-02-07T09:45:01.656Z,55.10
2019-02-07T09:47:47.513Z,59.43
2019-02-07T09:50:50.964Z,60.43
2019-02-07T09:53:39.289Z,58.07
2019-02-07T09:56:40.703Z,62.08
2019-02-07T09:59:29.790Z,65.93
2019-02-07T10:02:19.363Z,62.30
2019-02-07T10:05:09.039Z,61.00
2019-02-07T10:07:48.822Z,59.80
2019-02-07T10:10:45.816Z,61.53
2019-02-07T10:13:26.959Z,54.40
2019-02-07T10:16:16.499Z,54.63
2019-02-07T10:19:01.254Z,58.93
2019-02-07T10:21:51.139Z,59.40
2019-02-07T10:24:39.561Z,58.20
2019-02-07T10:27:28.138Z,59.83
2019-02-07T10:30:17.443Z,61.65
2019-02-07T10:33:23.129Z,63.10
2019-02-07T10:36:24.775Z,57.87
2019-02-07T10:39:06.271Z,58.57
2019-02-07T10:41:58.532Z,64.10
2019-02-07T10:44:54.654Z,57.63
2019-02-07T10:48:02.964Z,66.63
2019-02-07T10:50:53.075Z,58.90
2019-02-07T10:53:45.521Z,60.87
2019-02-07T10:56:49.232Z,53.27
2019-02-07T10:59:50.826Z,53.23
2019-02-07T11:02:53.850Z,55.60
2019-02-07T11:05:42.485Z,64.53
2019-02-07T11:08:38.168Z,51.27
2019-02-07T11:11:26.534Z,50.47
2019-02-07T11:14:18.837Z,53.17
2019-02-07T11:17:09.423Z,47.10
2019-02-07T11:20:08.286Z,47.65
2019-02-07T11:22:48.316Z,43.10
2019-02-07T11:25:39.647Z,48.10
2019-02-07T11:28:27.754Z,41.63
2019-02-07T11:31:13.761Z,37.70
2019-02-07T11:33:58.649Z,44.73
2019-02-07T11:37:03.327Z,51.53
2019-02-07T11:39:55.629Z,52.13
2019-02-07T11:42:41.964Z,45.40
2019-02-07T11:45:19.900Z,44.53
2019-02-07T11:48:12.283Z,44.77
2019-02-07T11:51:02.727Z,41.90
2019-02-07T11:53:47.225Z,48.73
2019-02-07T11:56:30.927Z,42.13
2019-02-07T11:59:32.435Z,56.13
2019-02-07T12:02:21.883Z,46.40
2019-02-07T12:05:10.262Z,48.63
2019-02-07T12:08:06.160Z,49.70
2019-02-07T12:11:14.742Z,46.40
2019-02-07T12:14:17.035Z,49.87
2019-02-07T12:17:00.865Z,68.80
2019-02-07T12:20:00.076Z,49.83
2019-02-07T12:22:48.338Z,53.80
2019-02-07T12:25:47.792Z,47.80
2019-02-07T12:28:40.113Z,56.27
2019-02-07T12:31:29.609Z,40.85
2019-02-07T12:34:10.265Z,43.23
2019-02-07T12:36:50.783Z,44.57
2019-02-07T12:39:51.450Z,39.08
2019-02-07T12:42:41.184Z,41.80
2019-02-07T12:45:29.854Z,42.03
2019-02-07T12:48:20.506Z,42.47
2019-02-07T12:51:22.183Z,44.50
2019-02-07T12:54:26.745Z,44.73
2019-02-07T12:57:16.199Z,45.73
2019-02-07T13:00:15.151Z,47.10
2019-02-07T13:03:04.450Z,48.40
2019-02-07T13:05:54.006Z,49.30
2019-02-07T13:08:48.113Z,53.03
2019-02-07T13:11:36.474Z,46.15
2019-02-07T13:14:24.829Z,41.83
2019-02-07T13:17:13.007Z,49.47
2019-02-07T13:20:18.720Z,42.43
2019-02-07T13:23:08.748Z,40.03
2019-02-07T13:25:52.054Z,42.13
2019-02-07T13:28:35.719Z,36.68
2019-02-07T13:31:24.101Z,39.20
2019-02-07T13:34:12.600Z,38.60
2019-02-07T13:37:10.846Z,38.50
2019-02-07T13:40:03.670Z,39.97
2019-02-07T13:42:49.922Z,40.20
2019-02-07T13:45:46.788Z,45.98
2019-02-07T13:48:36.583Z,36.88
2019-02-07T13:51:25.171Z,35.53
2019-02-07T13:54:23.635Z,32.80
2019-02-07T13:57:08.895Z,36.40
2019-02-07T14:00:03.232Z,33.83
2019-02-07T14:02:43.837Z,32.37
2019-02-07T14:05:33.487Z,36.70
2019-02-07T14:08:25.025Z,33.07
2019-02-07T14:11:16.744Z,38.03
2019-02-07T14:14:04.368Z,41.97
2019-02-07T14:17:04.312Z,38.13
2019-02-07T14:20:02.922Z,46.43
2019-02-07T14:22:43.347Z,36.80
2019-02-07T14:25:45.258Z,41.80
2019-02-07T14:28:53.227Z,34.53
2019-02-07T14:31:51.894Z,45.75
2019-02-07T14:34:39.815Z,39.78
2019-02-07T14:37:35.707Z,37.83
2019-02-07T14:40:27.385Z,40.43
2019-02-07T14:43:10.304Z,43.80
2019-02-07T14:45:46.287Z,52.53
2019-02-07T14:48:26.915Z,41.33
2019-02-07T14:50:57.314Z,38.20
2019-02-07T14:53:27.921Z,43.10
2019-02-07T14:55:58.698Z,41.37
2019-02-07T14:58:29.115Z,44.67
2019-02-07T15:00:59.948Z,44.70
2019-02-07T15:03:31.121Z,43.60
2019-02-07T15:06:01.876Z,42.87
2019-02-07T15:08:32.405Z,43.73
2019-02-07T15:11:03.069Z,43.40
2019-02-07T15:13:33.807Z,41.77
2019-02-07T15:16:04.900Z,43.83
2019-02-07T15:18:35.302Z,41.07
2019-02-07T15:21:06.080Z,45.03
2019-02-07T15:23:36.497Z,44.47
2019-02-07T15:26:07.789Z,43.30
2019-02-07T15:28:38.204Z,46.67
2019-02-07T15:31:08.565Z,45.27
2019-02-07T15:33:38.959Z,38.77
2019-02-07T15:36:10.781Z,37.20
2019-02-07T15:38:41.228Z,43.10
2019-02-07T15:41:11.698Z,37.20
2019-02-07T15:43:42.648Z,34.77
2019-02-07T15:46:13.448Z,40.53
2019-02-07T15:48:43.828Z,35.53
2019-02-07T15:51:14.401Z,36.03
2019-02-07T15:53:44.717Z,34.43
2019-02-07T15:56:15.159Z,34.13
2019-02-07T15:59:16.697Z,34.73
2019-02-07T16:02:06.621Z,36.77
2019-02-07T16:04:39.947Z,41.30
2019-02-07T16:07:10.461Z,53.73
2019-02-07T16:09:40.964Z,61.90
2019-02-07T16:12:11.492Z,45.43
2019-02-07T16:14:44.615Z,44.43
2019-02-07T16:17:15.346Z,49.20
2019-02-07T16:19:46.055Z,43.07
2019-02-07T16:22:16.559Z,36.70
2019-02-07T16:24:47.052Z,35.37
2019-02-07T16:27:17.621Z,36.42
2019-02-07T16:29:48.091Z,41.47
2019-02-07T16:32:18.583Z,40.03
2019-02-07T16:34:49.149Z,35.67
2019-02-07T16:37:19.570Z,42.73
2019-02-07T16:39:50.768Z,40.53
2019-02-07T16:42:21.214Z,40.92
2019-02-07T16:44:52.312Z,44.93
2019-02-07T16:47:22.807Z,49.40
2019-02-07T16:49:53.517Z,51.07
2019-02-07T16:52:24.103Z,49.20
2019-02-07T16:54:55.092Z,54.03
2019-02-07T16:57:25.615Z,58.33
2019-02-07T16:59:56.106Z,55.50
2019-02-07T17:02:26.780Z,61.23
2019-02-07T17:04:57.498Z,64.20
2019-02-07T17:07:27.882Z,59.83
2019-02-07T17:09:58.391Z,66.57
2019-02-07T17:12:28.987Z,63.13
2019-02-07T17:14:59.467Z,56.43
2019-02-07T17:17:29.979Z,61.50
2019-02-07T17:20:00.492Z,58.07
2019-02-07T17:22:31.560Z,68.63
2019-02-07T17:25:02.444Z,53.43
2019-02-07T17:27:33.366Z,51.20
2019-02-07T17:30:05.401Z,58.47
2019-02-07T17:32:36.884Z,53.47
2019-02-07T17:35:07.920Z,49.40
2019-02-07T17:37:39.878Z,47.20
2019-02-07T17:40:15.986Z,48.63
2019-02-07T17:42:46.848Z,56.70
2019-02-07T17:45:22.538Z,46.03
2019-02-07T17:47:53.645Z,51.67
2019-02-07T17:50:26.041Z,49.63
2019-02-07T17:52:58.441Z,55.48
2019-02-07T17:55:29.589Z,55.97
2019-02-07T17:58:00.103Z,91.67
2019-02-07T18:00:55.807Z,70.63
2019-02-07T18:03:26.196Z,62.30
2019-02-07T18:05:56.796Z,60.87
2019-02-07T18:08:28.983Z,61.23
2019-02-07T18:11:00.747Z,63.50
2019-02-07T18:13:33.101Z,70.43
2019-02-07T18:16:03.809Z,67.23
2019-02-07T18:18:34.236Z,71.50
2019-02-07T18:21:06.771Z,74.45
2019-02-07T18:23:39.326Z,69.80
2019-02-07T18:26:10.602Z,74.62
2019-02-07T18:28:41.412Z,75.35
2019-02-07T18:31:13.792Z,75.60
2019-02-07T18:33:44.182Z,72.47
2019-02-07T18:36:14.511Z,76.60
2019-02-07T18:38:45.308Z,77.57
2019-02-07T18:41:16.410Z,76.12
2019-02-07T18:43:47.153Z,80.73
2019-02-07T18:46:17.773Z,77.80
2019-02-07T18:48:48.440Z,69.77
2019-02-07T18:51:18.867Z,73.87
2019-02-07T18:53:49.339Z,75.70
2019-02-07T18:56:21.448Z,72.75
2019-02-07T18:58:52.161Z,86.53
2019-02-07T19:01:23.036Z,79.82
2019-02-07T19:03:53.797Z,87.80
2019-02-07T19:06:24.274Z,96.27
2019-02-07T19:08:54.880Z,113.63
2019-02-07T19:11:25.919Z,103.57
2019-02-07T19:13:56.292Z,101.87
2019-02-07T19:16:28.174Z,93.37
2019-02-07T19:18:59.293Z,94.80
2019-02-07T19:21:29.660Z,86.80
2019-02-07T19:24:00.323Z,88.80
2019-02-07T19:26:30.743Z,90.70
2019-02-07T19:29:01.268Z,97.70
2019-02-07T19:31:31.848Z,112.37
2019-02-07T19:34:02.350Z,88.53
2019-02-07T19:36:32.844Z,100.97
2019-02-07T19:39:04.071Z,102.83
2019-02-07T19:41:35.557Z,124.93
2019-02-07T19:44:06.732Z,125.67
2019-02-07T19:46:37.108Z,117.70
2019-02-07T19:49:07.726Z,115.40
2019-02-07T19:51:38.253Z,122.23
2019-02-07T19:54:08.808Z,114.88
2019-02-07T19:56:39.211Z,93.73
2019-02-07T19:59:10.034Z,90.07
2019-02-07T20:01:40.406Z,106.57
2019-02-07T20:04:11.196Z,86.97
2019-02-07T20:06:41.926Z,87.60
2019-02-07T20:09:13.490Z,89.47
2019-02-07T20:11:44.221Z,95.03
2019-02-07T20:14:14.805Z,97.50
2019-02-07T20:16:45.450Z,97.43
2019-02-07T20:19:16.082Z,102.87
2019-02-07T20:21:46.446Z,100.10
2019-02-07T20:24:17.001Z,107.83
2019-02-07T20:26:47.805Z,112.47
2019-02-07T20:29:18.304Z,106.43
2019-02-07T20:31:48.699Z,114.50
2019-02-07T20:34:20.501Z,115.73
2019-02-07T20:36:51.235Z,123.60
2019-02-07T20:39:23.320Z,121.90
2019-02-07T20:41:54.080Z,119.27
2019-02-07T20:44:32.486Z,113.50
2019-02-07T20:47:02.861Z,114.12
2019-02-07T20:49:33.597Z,112.07
2019-02-07T20:52:04.133Z,114.50
2019-02-07T20:54:35.555Z,114.83
2019-02-07T20:57:06.101Z,117.30
2019-02-07T20:59:37.410Z,120.63
2019-02-07T21:02:08.264Z,121.13
2019-02-07T21:04:38.804Z,116.37
2019-02-07T21:07:09.337Z,114.97
2019-02-07T21:09:40.283Z,117.67
2019-02-07T21:12:10.972Z,118.22
2019-02-07T21:14:41.640Z,120.37
2019-02-07T21:17:13.142Z,121.33
2019-02-07T21:19:44.139Z,115.03
2019-02-07T21:22:15.468Z,108.37
2019-02-07T21:24:46.208Z,103.27
2019-02-07T21:27:17.014Z,108.45
2019-02-07T21:29:47.563Z,112.77
2019-02-07T21:32:18.435Z,110.57
2019-02-07T21:34:49.090Z,118.30
2019-02-07T21:37:19.979Z,124.57
2019-02-07T21:39:50.930Z,121.13
2019-02-07T21:42:22.378Z,110.42
2019-02-07T21:44:54.560Z,110.93
2019-02-07T21:47:25.032Z,111.10
2019-02-07T21:49:55.815Z,107.53
2019-02-07T21:52:26.653Z,101.97
2019-02-07T21:54:57.387Z,112.57
2019-02-07T21:57:27.904Z,130.20
2019-02-07T22:00:01.048Z,121.17
2019-02-07T22:02:33.322Z,133.40
2019-02-07T22:05:03.881Z,118.90
2019-02-07T22:07:34.354Z,88.90
2019-02-07T22:10:07.147Z,89.83
2019-02-07T22:12:39.425Z,118.13
2019-02-07T22:15:12.455Z,120.70
2019-02-07T22:17:42.969Z,121.70
2019-02-07T22:20:19.898Z,92.45
2019-02-07T22:22:50.477Z,105.30
2019-02-07T22:25:22.262Z,109.10
2019-02-07T22:27:53.248Z,111.33
2019-02-07T22:30:26.760Z,111.23
2019-02-07T22:32:57.443Z,95.60
2019-02-07T22:35:28.038Z,89.37
2019-02-07T22:37:59.302Z,93.58
2019-02-07T22:40:31.303Z,93.80
2019-02-07T22:43:02.357Z,94.03
2019-02-07T22:45:34.231Z,95.23
2019-02-07T22:48:05.402Z,83.78
2019-02-07T22:50:35.965Z,74.73
2019-02-07T22:53:07.034Z,70.90
2019-02-07T22:55:39.063Z,75.03
2019-02-07T22:58:10.385Z,76.20
2019-02-07T23:01:17.510Z,71.82
2019-02-07T23:04:06.842Z,81.53
2019-02-07T23:06:37.989Z,84.67
2019-02-07T23:09:12.359Z,91.47
2019-02-07T23:11:43.023Z,109.20
2019-02-07T23:14:14.889Z,105.22
2019-02-07T23:16:45.868Z,106.23
2019-02-07T23:19:16.360Z,109.87
2019-02-07T23:21:47.187Z,105.67
2019-02-07T23:24:17.714Z,110.97
2019-02-07T23:26:48.241Z,100.83
2019-02-07T23:29:19.191Z,104.97
2019-02-07T23:31:49.847Z,101.80
2019-02-07T23:34:20.639Z,103.83
2019-02-07T23:36:51.573Z,89.27
2019-02-07T23:39:22.189Z,97.72
2019-02-07T23:41:54.384Z,90.73
2019-02-07T23:44:25.185Z,100.05
2019-02-07T23:46:55.555Z,94.70
2019-02-07T23:49:26.238Z,96.90
2019-02-07T23:51:58.191Z,94.60
2019-02-07T23:54:30.584Z,83.80
2019-02-07T23:57:01.447Z,90.57
2019-02-07T23:59:32.044Z,92.13
